sensor_id;sensor_type;location;lat;lon;timestamp;P1;durP1;ratioP1;P2;durP2;ratioP2
61960;SDS011;47923;42.506;24.192;2023-07-29T00:02:11;4.80;;;2.20;;
61960;SDS011;47923;42.506;24.192;2023-07-29T00:04:49;4.55;;;2.40;;
61960;SDS011;47923;42.506;24.192;2023-07-29T00:07:26;4.22;;;2.30;;
61960;SDS011;47923;42.506;24.192;2023-07-29T00:10:08;5.88;;;2.55;;
61960;SDS011;47923;42.506;24.192;2023-07-29T00:12:39;4.55;;;2.38;;
61960;SDS011;47923;42.506;24.192;2023-07-29T00:15:15;5.68;;;2.50;;
61960;SDS011;47923;42.506;24.192;2023-07-29T00:17:57;4.15;;;2.00;;
61960;SDS011;47923;42.506;24.192;2023-07-29T00:20:28;5.38;;;2.53;;
61960;SDS011;47923;42.506;24.192;2023-07-29T00:23:08;4.93;;;2.05;;
61960;SDS011;47923;42.506;24.192;2023-07-29T00:25:46;4.63;;;2.42;;
61960;SDS011;47923;42.506;24.192;2023-07-29T00:28:43;6.68;;;2.65;;
61960;SDS011;47923;42.506;24.192;2023-07-29T00:31:19;4.90;;;2.47;;
61960;SDS011;47923;42.506;24.192;2023-07-29T00:33:45;4.00;;;2.47;;
61960;SDS011;47923;42.506;24.192;2023-07-29T00:36:29;7.10;;;2.80;;
61960;SDS011;47923;42.506;24.192;2023-07-29T00:39:01;4.95;;;2.40;;
61960;SDS011;47923;42.506;24.192;2023-07-29T00:41:47;4.70;;;2.42;;
61960;SDS011;47923;42.506;24.192;2023-07-29T00:44:26;5.35;;;2.50;;
61960;SDS011;47923;42.506;24.192;2023-07-29T00:46:54;5.28;;;2.28;;
61960;SDS011;47923;42.506;24.192;2023-07-29T00:52:27;4.57;;;2.47;;
61960;SDS011;47923;42.506;24.192;2023-07-29T00:54:58;5.75;;;2.78;;
61960;SDS011;47923;42.506;24.192;2023-07-29T00:57:24;3.20;;;2.05;;
61960;SDS011;47923;42.506;24.192;2023-07-29T01:00:10;4.07;;;2.17;;
61960;SDS011;47923;42.506;24.192;2023-07-29T01:02:51;4.45;;;2.45;;
61960;SDS011;47923;42.506;24.192;2023-07-29T01:17:59;4.85;;;2.20;;
61960;SDS011;47923;42.506;24.192;2023-07-29T01:20:25;4.68;;;2.58;;
61960;SDS011;47923;42.506;24.192;2023-07-29T01:22:56;4.93;;;2.35;;
61960;SDS011;47923;42.506;24.192;2023-07-29T01:27:55;4.90;;;2.22;;
61960;SDS011;47923;42.506;24.192;2023-07-29T01:30:33;8.88;;;3.70;;
61960;SDS011;47923;42.506;24.192;2023-07-29T01:33:48;5.03;;;2.72;;
61960;SDS011;47923;42.506;24.192;2023-07-29T01:36:34;5.50;;;2.30;;
61960;SDS011;47923;42.506;24.192;2023-07-29T01:39:05;5.03;;;2.60;;
61960;SDS011;47923;42.506;24.192;2023-07-29T01:41:54;3.78;;;2.17;;
61960;SDS011;47923;42.506;24.192;2023-07-29T01:44:22;4.38;;;2.28;;
61960;SDS011;47923;42.506;24.192;2023-07-29T01:49:42;5.07;;;2.55;;
61960;SDS011;47923;42.506;24.192;2023-07-29T01:52:07;4.15;;;2.28;;
61960;SDS011;47923;42.506;24.192;2023-07-29T01:54:33;4.28;;;2.03;;
61960;SDS011;47923;42.506;24.192;2023-07-29T01:57:06;5.13;;;2.58;;
61960;SDS011;47923;42.506;24.192;2023-07-29T01:59:32;6.50;;;2.65;;
61960;SDS011;47923;42.506;24.192;2023-07-29T02:02:00;4.65;;;2.70;;
61960;SDS011;47923;42.506;24.192;2023-07-29T02:04:43;5.75;;;2.67;;
61960;SDS011;47923;42.506;24.192;2023-07-29T02:07:37;6.97;;;2.75;;
61960;SDS011;47923;42.506;24.192;2023-07-29T02:10:37;8.32;;;2.70;;
61960;SDS011;47923;42.506;24.192;2023-07-29T02:13:27;6.45;;;2.63;;
61960;SDS011;47923;42.506;24.192;2023-07-29T02:16:13;6.80;;;2.78;;
61960;SDS011;47923;42.506;24.192;2023-07-29T02:18:42;6.32;;;3.10;;
61960;SDS011;47923;42.506;24.192;2023-07-29T02:21:13;5.57;;;2.78;;
61960;SDS011;47923;42.506;24.192;2023-07-29T02:23:51;8.25;;;2.83;;
61960;SDS011;47923;42.506;24.192;2023-07-29T02:26:40;6.50;;;3.00;;
61960;SDS011;47923;42.506;24.192;2023-07-29T02:29:23;5.50;;;2.65;;
61960;SDS011;47923;42.506;24.192;2023-07-29T02:32:11;5.07;;;2.47;;
61960;SDS011;47923;42.506;24.192;2023-07-29T02:34:42;4.82;;;2.80;;
61960;SDS011;47923;42.506;24.192;2023-07-29T02:37:11;6.97;;;2.40;;
61960;SDS011;47923;42.506;24.192;2023-07-29T02:39:44;7.07;;;2.40;;
61960;SDS011;47923;42.506;24.192;2023-07-29T02:42:31;4.45;;;2.67;;
61960;SDS011;47923;42.506;24.192;2023-07-29T02:47:45;6.43;;;2.70;;
61960;SDS011;47923;42.506;24.192;2023-07-29T02:50:34;7.32;;;2.83;;
61960;SDS011;47923;42.506;24.192;2023-07-29T02:52:59;5.35;;;2.65;;
61960;SDS011;47923;42.506;24.192;2023-07-29T02:55:35;4.97;;;2.58;;
61960;SDS011;47923;42.506;24.192;2023-07-29T03:01:23;4.07;;;2.53;;
61960;SDS011;47923;42.506;24.192;2023-07-29T03:03:57;3.88;;;2.58;;
61960;SDS011;47923;42.506;24.192;2023-07-29T03:06:25;7.30;;;2.90;;
61960;SDS011;47923;42.506;24.192;2023-07-29T03:09:18;4.85;;;2.70;;
61960;SDS011;47923;42.506;24.192;2023-07-29T03:11:52;5.68;;;2.97;;
61960;SDS011;47923;42.506;24.192;2023-07-29T03:14:28;5.18;;;2.25;;
61960;SDS011;47923;42.506;24.192;2023-07-29T03:17:17;5.55;;;2.85;;
61960;SDS011;47923;42.506;24.192;2023-07-29T03:20:00;5.10;;;2.70;;
61960;SDS011;47923;42.506;24.192;2023-07-29T03:22:32;6.95;;;2.75;;
61960;SDS011;47923;42.506;24.192;2023-07-29T03:25:03;6.07;;;2.78;;
61960;SDS011;47923;42.506;24.192;2023-07-29T03:27:37;7.10;;;3.03;;
61960;SDS011;47923;42.506;24.192;2023-07-29T03:30:14;7.10;;;2.53;;
61960;SDS011;47923;42.506;24.192;2023-07-29T03:32:50;6.55;;;2.90;;
61960;SDS011;47923;42.506;24.192;2023-07-29T03:35:25;4.85;;;2.58;;
61960;SDS011;47923;42.506;24.192;2023-07-29T03:37:50;4.90;;;2.58;;
61960;SDS011;47923;42.506;24.192;2023-07-29T03:40:32;4.85;;;2.42;;
61960;SDS011;47923;42.506;24.192;2023-07-29T03:42:58;4.97;;;2.38;;
61960;SDS011;47923;42.506;24.192;2023-07-29T03:45:35;5.63;;;2.58;;
61960;SDS011;47923;42.506;24.192;2023-07-29T03:53:18;5.32;;;2.83;;
61960;SDS011;47923;42.506;24.192;2023-07-29T03:56:08;5.10;;;2.47;;
61960;SDS011;47923;42.506;24.192;2023-07-29T03:58:35;6.30;;;2.53;;
61960;SDS011;47923;42.506;24.192;2023-07-29T04:01:04;5.72;;;2.60;;
61960;SDS011;47923;42.506;24.192;2023-07-29T04:03:38;4.75;;;1.98;;
61960;SDS011;47923;42.506;24.192;2023-07-29T04:06:06;6.60;;;2.78;;
61960;SDS011;47923;42.506;24.192;2023-07-29T04:08:50;7.22;;;2.72;;
61960;SDS011;47923;42.506;24.192;2023-07-29T04:11:16;5.07;;;2.20;;
61960;SDS011;47923;42.506;24.192;2023-07-29T04:13:50;4.60;;;2.20;;
61960;SDS011;47923;42.506;24.192;2023-07-29T04:16:27;9.02;;;2.53;;
61960;SDS011;47923;42.506;24.192;2023-07-29T04:18:55;7.25;;;2.60;;
61960;SDS011;47923;42.506;24.192;2023-07-29T04:21:38;7.03;;;2.45;;
61960;SDS011;47923;42.506;24.192;2023-07-29T04:24:30;4.20;;;2.03;;
61960;SDS011;47923;42.506;24.192;2023-07-29T04:26:58;9.00;;;1.90;;
61960;SDS011;47923;42.506;24.192;2023-07-29T04:29:26;4.72;;;2.15;;
61960;SDS011;47923;42.506;24.192;2023-07-29T04:31:55;4.40;;;2.05;;
61960;SDS011;47923;42.506;24.192;2023-07-29T04:34:20;10.45;;;2.20;;
61960;SDS011;47923;42.506;24.192;2023-07-29T04:36:54;3.45;;;1.73;;
61960;SDS011;47923;42.506;24.192;2023-07-29T04:39:30;5.35;;;2.17;;
61960;SDS011;47923;42.506;24.192;2023-07-29T04:41:55;4.95;;;2.10;;
61960;SDS011;47923;42.506;24.192;2023-07-29T04:44:34;5.40;;;1.90;;
61960;SDS011;47923;42.506;24.192;2023-07-29T04:46:59;5.47;;;1.88;;
61960;SDS011;47923;42.506;24.192;2023-07-29T04:49:51;3.97;;;1.80;;
61960;SDS011;47923;42.506;24.192;2023-07-29T04:52:22;3.67;;;2.03;;
61960;SDS011;47923;42.506;24.192;2023-07-29T04:54:52;4.05;;;2.08;;
61960;SDS011;47923;42.506;24.192;2023-07-29T04:57:21;3.38;;;2.10;;
61960;SDS011;47923;42.506;24.192;2023-07-29T05:00:00;10.35;;;2.38;;
61960;SDS011;47923;42.506;24.192;2023-07-29T05:02:28;4.78;;;2.15;;
61960;SDS011;47923;42.506;24.192;2023-07-29T05:05:20;5.18;;;2.10;;
61960;SDS011;47923;42.506;24.192;2023-07-29T05:07:49;5.10;;;1.88;;
61960;SDS011;47923;42.506;24.192;2023-07-29T05:10:52;4.00;;;2.08;;
61960;SDS011;47923;42.506;24.192;2023-07-29T05:13:23;6.40;;;2.50;;
61960;SDS011;47923;42.506;24.192;2023-07-29T05:15:51;8.13;;;2.70;;
61960;SDS011;47923;42.506;24.192;2023-07-29T05:18:20;7.43;;;2.80;;
61960;SDS011;47923;42.506;24.192;2023-07-29T05:20:46;5.90;;;2.80;;
61960;SDS011;47923;42.506;24.192;2023-07-29T05:23:21;8.98;;;2.10;;
61960;SDS011;47923;42.506;24.192;2023-07-29T05:25:51;7.38;;;2.42;;
61960;SDS011;47923;42.506;24.192;2023-07-29T05:28:17;6.55;;;2.10;;
61960;SDS011;47923;42.506;24.192;2023-07-29T05:30:48;6.63;;;2.35;;
61960;SDS011;47923;42.506;24.192;2023-07-29T05:33:27;6.38;;;2.38;;
61960;SDS011;47923;42.506;24.192;2023-07-29T05:36:19;6.05;;;1.95;;
61960;SDS011;47923;42.506;24.192;2023-07-29T05:39:06;4.45;;;2.20;;
61960;SDS011;47923;42.506;24.192;2023-07-29T05:41:43;6.28;;;2.35;;
61960;SDS011;47923;42.506;24.192;2023-07-29T05:44:12;9.63;;;2.40;;
61960;SDS011;47923;42.506;24.192;2023-07-29T05:46:37;7.20;;;2.22;;
61960;SDS011;47923;42.506;24.192;2023-07-29T05:49:05;4.90;;;2.00;;
61960;SDS011;47923;42.506;24.192;2023-07-29T05:51:53;4.32;;;1.60;;
61960;SDS011;47923;42.506;24.192;2023-07-29T05:54:27;3.40;;;1.52;;
61960;SDS011;47923;42.506;24.192;2023-07-29T05:57:04;2.83;;;1.80;;
61960;SDS011;47923;42.506;24.192;2023-07-29T05:59:33;3.65;;;1.80;;
61960;SDS011;47923;42.506;24.192;2023-07-29T06:02:15;4.22;;;1.52;;
61960;SDS011;47923;42.506;24.192;2023-07-29T06:05:01;4.13;;;1.60;;
61960;SDS011;47923;42.506;24.192;2023-07-29T06:07:31;4.68;;;1.63;;
61960;SDS011;47923;42.506;24.192;2023-07-29T06:10:23;4.35;;;1.58;;
61960;SDS011;47923;42.506;24.192;2023-07-29T06:12:52;4.80;;;1.40;;
61960;SDS011;47923;42.506;24.192;2023-07-29T06:15:20;2.03;;;1.17;;
61960;SDS011;47923;42.506;24.192;2023-07-29T06:17:51;2.60;;;1.50;;
61960;SDS011;47923;42.506;24.192;2023-07-29T06:20:22;4.70;;;1.50;;
61960;SDS011;47923;42.506;24.192;2023-07-29T06:25:23;3.67;;;1.40;;
61960;SDS011;47923;42.506;24.192;2023-07-29T06:27:51;2.20;;;1.58;;
61960;SDS011;47923;42.506;24.192;2023-07-29T06:30:19;3.70;;;1.73;;
61960;SDS011;47923;42.506;24.192;2023-07-29T06:32:49;1.77;;;1.27;;
61960;SDS011;47923;42.506;24.192;2023-07-29T06:35:23;3.33;;;1.45;;
61960;SDS011;47923;42.506;24.192;2023-07-29T06:38:00;2.17;;;1.33;;
61960;SDS011;47923;42.506;24.192;2023-07-29T06:40:28;6.78;;;1.85;;
61960;SDS011;47923;42.506;24.192;2023-07-29T06:43:05;2.15;;;1.42;;
61960;SDS011;47923;42.506;24.192;2023-07-29T06:45:34;8.70;;;1.52;;
61960;SDS011;47923;42.506;24.192;2023-07-29T06:48:10;3.08;;;1.35;;
61960;SDS011;47923;42.506;24.192;2023-07-29T06:50:40;8.60;;;1.85;;
61960;SDS011;47923;42.506;24.192;2023-07-29T06:53:12;2.83;;;1.42;;
61960;SDS011;47923;42.506;24.192;2023-07-29T06:55:37;3.80;;;1.48;;
61960;SDS011;47923;42.506;24.192;2023-07-29T06:58:08;2.05;;;1.38;;
61960;SDS011;47923;42.506;24.192;2023-07-29T07:00:37;3.78;;;1.58;;
61960;SDS011;47923;42.506;24.192;2023-07-29T07:03:08;8.60;;;1.70;;
61960;SDS011;47923;42.506;24.192;2023-07-29T07:05:33;4.38;;;1.58;;
61960;SDS011;47923;42.506;24.192;2023-07-29T07:08:04;4.35;;;1.50;;
61960;SDS011;47923;42.506;24.192;2023-07-29T07:10:32;6.07;;;1.60;;
61960;SDS011;47923;42.506;24.192;2023-07-29T07:12:59;2.95;;;1.38;;
61960;SDS011;47923;42.506;24.192;2023-07-29T07:15:24;2.38;;;1.30;;
61960;SDS011;47923;42.506;24.192;2023-07-29T07:17:50;2.35;;;1.40;;
61960;SDS011;47923;42.506;24.192;2023-07-29T07:20:34;2.95;;;1.55;;
61960;SDS011;47923;42.506;24.192;2023-07-29T07:23:02;3.35;;;1.45;;
61960;SDS011;47923;42.506;24.192;2023-07-29T07:25:30;2.35;;;1.33;;
61960;SDS011;47923;42.506;24.192;2023-07-29T07:28:01;2.75;;;1.40;;
61960;SDS011;47923;42.506;24.192;2023-07-29T07:30:32;1.88;;;1.40;;
61960;SDS011;47923;42.506;24.192;2023-07-29T07:33:04;3.22;;;1.40;;
61960;SDS011;47923;42.506;24.192;2023-07-29T07:35:33;3.13;;;1.52;;
61960;SDS011;47923;42.506;24.192;2023-07-29T07:38:07;2.70;;;1.55;;
61960;SDS011;47923;42.506;24.192;2023-07-29T07:40:46;2.33;;;1.38;;
61960;SDS011;47923;42.506;24.192;2023-07-29T07:43:23;2.67;;;1.38;;
61960;SDS011;47923;42.506;24.192;2023-07-29T07:45:56;3.40;;;1.30;;
61960;SDS011;47923;42.506;24.192;2023-07-29T07:48:27;2.10;;;1.40;;
61960;SDS011;47923;42.506;24.192;2023-07-29T07:51:37;4.10;;;1.15;;
61960;SDS011;47923;42.506;24.192;2023-07-29T07:54:01;2.47;;;1.35;;
61960;SDS011;47923;42.506;24.192;2023-07-29T07:56:30;2.88;;;1.27;;
61960;SDS011;47923;42.506;24.192;2023-07-29T07:59:01;2.00;;;1.30;;
61960;SDS011;47923;42.506;24.192;2023-07-29T08:01:44;1.45;;;1.20;;
61960;SDS011;47923;42.506;24.192;2023-07-29T08:04:14;2.63;;;1.50;;
61960;SDS011;47923;42.506;24.192;2023-07-29T08:06:47;2.17;;;1.40;;
61960;SDS011;47923;42.506;24.192;2023-07-29T08:09:21;2.53;;;1.48;;
61960;SDS011;47923;42.506;24.192;2023-07-29T08:11:47;3.13;;;1.60;;
61960;SDS011;47923;42.506;24.192;2023-07-29T08:14:12;2.38;;;1.23;;
61960;SDS011;47923;42.506;24.192;2023-07-29T08:16:47;3.90;;;1.48;;
61960;SDS011;47923;42.506;24.192;2023-07-29T08:19:30;1.98;;;1.30;;
61960;SDS011;47923;42.506;24.192;2023-07-29T08:21:55;2.75;;;1.20;;
61960;SDS011;47923;42.506;24.192;2023-07-29T08:24:44;2.95;;;1.48;;
61960;SDS011;47923;42.506;24.192;2023-07-29T08:27:10;2.17;;;1.38;;
61960;SDS011;47923;42.506;24.192;2023-07-29T08:29:38;2.03;;;1.40;;
61960;SDS011;47923;42.506;24.192;2023-07-29T08:32:15;1.70;;;1.00;;
61960;SDS011;47923;42.506;24.192;2023-07-29T08:34:50;1.88;;;1.23;;
61960;SDS011;47923;42.506;24.192;2023-07-29T08:37:15;4.00;;;1.65;;
61960;SDS011;47923;42.506;24.192;2023-07-29T08:40:02;2.97;;;1.38;;
61960;SDS011;47923;42.506;24.192;2023-07-29T08:42:31;5.90;;;1.27;;
61960;SDS011;47923;42.506;24.192;2023-07-29T08:45:07;2.72;;;1.42;;
61960;SDS011;47923;42.506;24.192;2023-07-29T08:47:42;4.05;;;1.42;;
61960;SDS011;47923;42.506;24.192;2023-07-29T08:50:14;4.82;;;1.67;;
61960;SDS011;47923;42.506;24.192;2023-07-29T08:52:46;2.80;;;1.20;;
61960;SDS011;47923;42.506;24.192;2023-07-29T08:55:20;5.55;;;1.67;;
61960;SDS011;47923;42.506;24.192;2023-07-29T08:58:02;1.90;;;1.20;;
61960;SDS011;47923;42.506;24.192;2023-07-29T09:00:28;3.15;;;1.35;;
61960;SDS011;47923;42.506;24.192;2023-07-29T09:02:56;2.13;;;1.20;;
61960;SDS011;47923;42.506;24.192;2023-07-29T09:05:33;1.20;;;1.00;;
61960;SDS011;47923;42.506;24.192;2023-07-29T09:08:04;1.60;;;1.20;;
61960;SDS011;47923;42.506;24.192;2023-07-29T09:10:37;3.22;;;1.30;;
61960;SDS011;47923;42.506;24.192;2023-07-29T09:13:08;3.30;;;1.30;;
61960;SDS011;47923;42.506;24.192;2023-07-29T09:15:35;2.95;;;1.20;;
61960;SDS011;47923;42.506;24.192;2023-07-29T09:18:09;1.10;;;0.90;;
61960;SDS011;47923;42.506;24.192;2023-07-29T09:20:40;3.85;;;1.33;;
61960;SDS011;47923;42.506;24.192;2023-07-29T09:23:11;1.75;;;1.30;;
61960;SDS011;47923;42.506;24.192;2023-07-29T09:25:39;2.50;;;1.20;;
61960;SDS011;47923;42.506;24.192;2023-07-29T09:28:12;4.50;;;1.38;;
61960;SDS011;47923;42.506;24.192;2023-07-29T09:30:49;2.50;;;1.30;;
61960;SDS011;47923;42.506;24.192;2023-07-29T09:33:21;2.03;;;1.33;;
61960;SDS011;47923;42.506;24.192;2023-07-29T09:36:14;4.82;;;1.60;;
61960;SDS011;47923;42.506;24.192;2023-07-29T09:38:50;1.77;;;1.20;;
61960;SDS011;47923;42.506;24.192;2023-07-29T09:41:20;1.38;;;1.10;;
61960;SDS011;47923;42.506;24.192;2023-07-29T09:44:04;4.05;;;1.45;;
61960;SDS011;47923;42.506;24.192;2023-07-29T09:46:37;2.35;;;1.30;;
61960;SDS011;47923;42.506;24.192;2023-07-29T09:49:03;3.80;;;1.42;;
61960;SDS011;47923;42.506;24.192;2023-07-29T09:51:38;2.15;;;1.20;;
61960;SDS011;47923;42.506;24.192;2023-07-29T09:54:04;2.13;;;1.00;;
61960;SDS011;47923;42.506;24.192;2023-07-29T09:56:30;1.83;;;1.30;;
61960;SDS011;47923;42.506;24.192;2023-07-29T09:58:56;3.38;;;1.20;;
61960;SDS011;47923;42.506;24.192;2023-07-29T10:01:24;3.08;;;1.10;;
61960;SDS011;47923;42.506;24.192;2023-07-29T10:03:50;4.30;;;1.17;;
61960;SDS011;47923;42.506;24.192;2023-07-29T10:06:16;3.42;;;1.50;;
61960;SDS011;47923;42.506;24.192;2023-07-29T10:08:43;2.05;;;1.13;;
61960;SDS011;47923;42.506;24.192;2023-07-29T10:11:09;2.65;;;1.40;;
61960;SDS011;47923;42.506;24.192;2023-07-29T10:13:35;2.38;;;1.38;;
61960;SDS011;47923;42.506;24.192;2023-07-29T10:16:03;3.53;;;1.30;;
61960;SDS011;47923;42.506;24.192;2023-07-29T10:18:39;2.10;;;1.15;;
61960;SDS011;47923;42.506;24.192;2023-07-29T10:21:05;2.60;;;1.25;;
61960;SDS011;47923;42.506;24.192;2023-07-29T10:23:37;3.65;;;1.35;;
61960;SDS011;47923;42.506;24.192;2023-07-29T10:26:09;2.92;;;1.40;;
61960;SDS011;47923;42.506;24.192;2023-07-29T10:28:46;1.67;;;1.08;;
61960;SDS011;47923;42.506;24.192;2023-07-29T10:31:17;1.75;;;0.90;;
61960;SDS011;47923;42.506;24.192;2023-07-29T10:33:47;3.70;;;1.13;;
61960;SDS011;47923;42.506;24.192;2023-07-29T10:36:14;2.47;;;0.85;;
61960;SDS011;47923;42.506;24.192;2023-07-29T10:38:40;1.45;;;1.08;;
61960;SDS011;47923;42.506;24.192;2023-07-29T10:41:06;2.15;;;1.30;;
61960;SDS011;47923;42.506;24.192;2023-07-29T10:43:33;2.03;;;1.48;;
61960;SDS011;47923;42.506;24.192;2023-07-29T10:51:28;3.55;;;1.70;;
61960;SDS011;47923;42.506;24.192;2023-07-29T10:54:00;4.63;;;2.03;;
61960;SDS011;47923;42.506;24.192;2023-07-29T10:56:28;4.13;;;1.98;;
61960;SDS011;47923;42.506;24.192;2023-07-29T10:58:59;2.45;;;1.25;;
61960;SDS011;47923;42.506;24.192;2023-07-29T11:01:56;1.60;;;1.10;;
61960;SDS011;47923;42.506;24.192;2023-07-29T11:17:51;4.45;;;1.70;;
61960;SDS011;47923;42.506;24.192;2023-07-29T11:20:35;2.70;;;1.40;;
61960;SDS011;47923;42.506;24.192;2023-07-29T11:23:01;4.65;;;1.55;;
61960;SDS011;47923;42.506;24.192;2023-07-29T11:25:31;2.63;;;1.38;;
61960;SDS011;47923;42.506;24.192;2023-07-29T11:27:59;2.90;;;1.50;;
61960;SDS011;47923;42.506;24.192;2023-07-29T11:30:25;5.00;;;1.90;;
61960;SDS011;47923;42.506;24.192;2023-07-29T11:32:58;3.50;;;1.60;;
61960;SDS011;47923;42.506;24.192;2023-07-29T11:35:24;5.30;;;1.85;;
61960;SDS011;47923;42.506;24.192;2023-07-29T11:37:50;3.42;;;1.48;;
61960;SDS011;47923;42.506;24.192;2023-07-29T11:40:17;3.20;;;1.20;;
61960;SDS011;47923;42.506;24.192;2023-07-29T11:42:48;2.92;;;1.30;;
61960;SDS011;47923;42.506;24.192;2023-07-29T11:45:17;4.82;;;1.83;;
61960;SDS011;47923;42.506;24.192;2023-07-29T11:47:44;2.33;;;1.30;;
61960;SDS011;47923;42.506;24.192;2023-07-29T11:50:11;4.68;;;1.70;;
61960;SDS011;47923;42.506;24.192;2023-07-29T11:52:45;2.08;;;1.30;;
61960;SDS011;47923;42.506;24.192;2023-07-29T11:55:11;2.47;;;1.60;;
61960;SDS011;47923;42.506;24.192;2023-07-29T11:57:44;5.93;;;1.40;;
61960;SDS011;47923;42.506;24.192;2023-07-29T12:00:18;3.03;;;1.33;;
61960;SDS011;47923;42.506;24.192;2023-07-29T12:02:54;3.33;;;1.52;;
61960;SDS011;47923;42.506;24.192;2023-07-29T12:05:24;2.95;;;1.33;;
61960;SDS011;47923;42.506;24.192;2023-07-29T12:07:53;5.20;;;1.40;;
61960;SDS011;47923;42.506;24.192;2023-07-29T12:10:21;2.15;;;1.23;;
61960;SDS011;47923;42.506;24.192;2023-07-29T12:12:53;4.00;;;1.42;;
61960;SDS011;47923;42.506;24.192;2023-07-29T12:15:27;5.38;;;2.58;;
61960;SDS011;47923;42.506;24.192;2023-07-29T12:17:57;11.23;;;7.78;;
61960;SDS011;47923;42.506;24.192;2023-07-29T12:20:24;3.28;;;1.42;;
61960;SDS011;47923;42.506;24.192;2023-07-29T12:22:59;5.22;;;1.55;;
61960;SDS011;47923;42.506;24.192;2023-07-29T12:25:30;2.20;;;1.40;;
61960;SDS011;47923;42.506;24.192;2023-07-29T12:28:03;3.42;;;1.77;;
61960;SDS011;47923;42.506;24.192;2023-07-29T12:30:32;2.80;;;1.48;;
61960;SDS011;47923;42.506;24.192;2023-07-29T12:33:08;2.40;;;1.48;;
61960;SDS011;47923;42.506;24.192;2023-07-29T12:35:56;4.32;;;1.30;;
61960;SDS011;47923;42.506;24.192;2023-07-29T12:38:28;3.40;;;1.42;;
61960;SDS011;47923;42.506;24.192;2023-07-29T12:40:59;3.92;;;1.30;;
61960;SDS011;47923;42.506;24.192;2023-07-29T12:43:25;2.30;;;1.20;;
61960;SDS011;47923;42.506;24.192;2023-07-29T12:45:53;2.95;;;1.30;;
61960;SDS011;47923;42.506;24.192;2023-07-29T12:48:22;2.10;;;1.27;;
61960;SDS011;47923;42.506;24.192;2023-07-29T12:50:50;4.30;;;1.50;;
61960;SDS011;47923;42.506;24.192;2023-07-29T12:53:18;2.83;;;1.40;;
61960;SDS011;47923;42.506;24.192;2023-07-29T12:56:01;5.13;;;1.50;;
61960;SDS011;47923;42.506;24.192;2023-07-29T12:58:53;2.20;;;1.20;;
61960;SDS011;47923;42.506;24.192;2023-07-29T13:01:24;4.68;;;1.92;;
61960;SDS011;47923;42.506;24.192;2023-07-29T13:03:50;3.70;;;1.35;;
61960;SDS011;47923;42.506;24.192;2023-07-29T13:06:23;2.17;;;1.35;;
61960;SDS011;47923;42.506;24.192;2023-07-29T13:08:52;3.05;;;1.30;;
61960;SDS011;47923;42.506;24.192;2023-07-29T13:13:51;3.47;;;1.40;;
61960;SDS011;47923;42.506;24.192;2023-07-29T13:16:25;4.13;;;1.55;;
61960;SDS011;47923;42.506;24.192;2023-07-29T13:18:56;2.63;;;1.48;;
61960;SDS011;47923;42.506;24.192;2023-07-29T13:21:24;2.35;;;1.13;;
61960;SDS011;47923;42.506;24.192;2023-07-29T13:23:49;4.47;;;1.20;;
61960;SDS011;47923;42.506;24.192;2023-07-29T13:26:16;2.10;;;1.10;;
61960;SDS011;47923;42.506;24.192;2023-07-29T13:28:56;3.38;;;1.25;;
61960;SDS011;47923;42.506;24.192;2023-07-29T13:31:29;1.85;;;1.20;;
61960;SDS011;47923;42.506;24.192;2023-07-29T13:34:01;3.10;;;1.50;;
61960;SDS011;47923;42.506;24.192;2023-07-29T13:36:29;3.85;;;1.30;;
61960;SDS011;47923;42.506;24.192;2023-07-29T13:39:04;3.88;;;1.60;;
61960;SDS011;47923;42.506;24.192;2023-07-29T13:41:33;3.25;;;1.58;;
61960;SDS011;47923;42.506;24.192;2023-07-29T13:43:58;1.88;;;1.20;;
61960;SDS011;47923;42.506;24.192;2023-07-29T13:46:24;2.33;;;1.33;;
61960;SDS011;47923;42.506;24.192;2023-07-29T13:48:52;1.92;;;1.23;;
61960;SDS011;47923;42.506;24.192;2023-07-29T13:51:32;3.42;;;1.50;;
61960;SDS011;47923;42.506;24.192;2023-07-29T13:54:23;5.70;;;1.73;;
61960;SDS011;47923;42.506;24.192;2023-07-29T13:56:53;5.10;;;1.83;;
61960;SDS011;47923;42.506;24.192;2023-07-29T13:59:24;2.10;;;1.27;;
61960;SDS011;47923;42.506;24.192;2023-07-29T14:01:58;3.95;;;1.52;;
61960;SDS011;47923;42.506;24.192;2023-07-29T14:04:26;3.53;;;1.20;;
61960;SDS011;47923;42.506;24.192;2023-07-29T14:06:57;2.90;;;1.60;;
61960;SDS011;47923;42.506;24.192;2023-07-29T14:14:54;2.63;;;1.40;;
61960;SDS011;47923;42.506;24.192;2023-07-29T14:17:22;3.13;;;1.55;;
61960;SDS011;47923;42.506;24.192;2023-07-29T14:20:02;4.82;;;1.45;;
61960;SDS011;47923;42.506;24.192;2023-07-29T14:22:59;3.50;;;1.52;;
61960;SDS011;47923;42.506;24.192;2023-07-29T14:25:30;3.33;;;1.83;;
61960;SDS011;47923;42.506;24.192;2023-07-29T14:27:58;3.88;;;1.50;;
61960;SDS011;47923;42.506;24.192;2023-07-29T14:30:26;4.10;;;1.50;;
61960;SDS011;47923;42.506;24.192;2023-07-29T14:32:54;3.20;;;1.40;;
61960;SDS011;47923;42.506;24.192;2023-07-29T14:35:19;2.33;;;1.10;;
61960;SDS011;47923;42.506;24.192;2023-07-29T14:38:10;3.13;;;1.35;;
61960;SDS011;47923;42.506;24.192;2023-07-29T14:40:34;5.93;;;2.08;;
61960;SDS011;47923;42.506;24.192;2023-07-29T14:43:00;7.32;;;1.63;;
61960;SDS011;47923;42.506;24.192;2023-07-29T14:45:31;1.83;;;1.35;;
61960;SDS011;47923;42.506;24.192;2023-07-29T14:47:58;2.45;;;1.63;;
61960;SDS011;47923;42.506;24.192;2023-07-29T14:50:34;2.58;;;1.30;;
61960;SDS011;47923;42.506;24.192;2023-07-29T14:53:02;3.22;;;1.33;;
61960;SDS011;47923;42.506;24.192;2023-07-29T14:55:36;3.40;;;1.65;;
61960;SDS011;47923;42.506;24.192;2023-07-29T14:58:13;9.48;;;5.50;;
61960;SDS011;47923;42.506;24.192;2023-07-29T15:00:57;9.85;;;5.25;;
61960;SDS011;47923;42.506;24.192;2023-07-29T15:03:41;2.95;;;1.90;;
61960;SDS011;47923;42.506;24.192;2023-07-29T15:06:09;5.15;;;1.98;;
61960;SDS011;47923;42.506;24.192;2023-07-29T15:08:58;3.08;;;1.90;;
61960;SDS011;47923;42.506;24.192;2023-07-29T15:11:23;4.68;;;1.90;;
61960;SDS011;47923;42.506;24.192;2023-07-29T15:14:12;2.38;;;1.70;;
61960;SDS011;47923;42.506;24.192;2023-07-29T15:16:59;3.17;;;1.52;;
61960;SDS011;47923;42.506;24.192;2023-07-29T15:19:31;5.70;;;2.20;;
61960;SDS011;47923;42.506;24.192;2023-07-29T15:21:59;9.00;;;5.72;;
61960;SDS011;47923;42.506;24.192;2023-07-29T15:24:25;10.02;;;5.03;;
61960;SDS011;47923;42.506;24.192;2023-07-29T15:26:56;3.95;;;1.65;;
61960;SDS011;47923;42.506;24.192;2023-07-29T15:29:23;5.80;;;2.35;;
61960;SDS011;47923;42.506;24.192;2023-07-29T15:31:57;13.80;;;2.40;;
61960;SDS011;47923;42.506;24.192;2023-07-29T15:34:40;4.25;;;1.90;;
61960;SDS011;47923;42.506;24.192;2023-07-29T15:37:13;4.90;;;2.13;;
61960;SDS011;47923;42.506;24.192;2023-07-29T15:40:06;4.07;;;1.70;;
61960;SDS011;47923;42.506;24.192;2023-07-29T15:42:47;2.33;;;1.27;;
61960;SDS011;47923;42.506;24.192;2023-07-29T15:45:27;6.05;;;3.20;;
61960;SDS011;47923;42.506;24.192;2023-07-29T15:48:04;5.97;;;2.63;;
61960;SDS011;47923;42.506;24.192;2023-07-29T15:50:38;5.35;;;2.38;;
61960;SDS011;47923;42.506;24.192;2023-07-29T15:53:15;4.55;;;2.33;;
61960;SDS011;47923;42.506;24.192;2023-07-29T15:55:43;5.43;;;2.50;;
61960;SDS011;47923;42.506;24.192;2023-07-29T15:58:20;2.72;;;1.88;;
61960;SDS011;47923;42.506;24.192;2023-07-29T16:00:51;4.65;;;2.53;;
61960;SDS011;47923;42.506;24.192;2023-07-29T16:03:27;7.75;;;4.88;;
61960;SDS011;47923;42.506;24.192;2023-07-29T16:05:55;6.72;;;3.20;;
61960;SDS011;47923;42.506;24.192;2023-07-29T16:08:28;3.58;;;1.50;;
61960;SDS011;47923;42.506;24.192;2023-07-29T16:10:59;5.70;;;2.85;;
61960;SDS011;47923;42.506;24.192;2023-07-29T16:13:24;9.23;;;3.85;;